sensor_id;sensor_type;location;lat;lon;timestamp;P1;durP1;ratioP1;P2;durP2;ratioP2
59734;SDS011;64362;45.620;4.920;2024-01-11T00:02:20;7.93;;;6.30;;
59734;SDS011;64362;45.620;4.920;2024-01-11T00:04:46;8.57;;;6.15;;
59734;SDS011;64362;45.620;4.920;2024-01-11T00:07:11;9.20;;;6.03;;
59734;SDS011;64362;45.620;4.920;2024-01-11T00:09:41;9.73;;;6.47;;
59734;SDS011;64362;45.620;4.920;2024-01-11T00:12:07;9.38;;;6.25;;
59734;SDS011;64362;45.620;4.920;2024-01-11T00:14:32;8.18;;;6.32;;
59734;SDS011;64362;45.620;4.920;2024-01-11T00:16:58;7.78;;;5.97;;
59734;SDS011;64362;45.620;4.920;2024-01-11T00:19:23;8.85;;;6.65;;
59734;SDS011;64362;45.620;4.920;2024-01-11T00:21:49;9.02;;;7.03;;
59734;SDS011;64362;45.620;4.920;2024-01-11T00:24:14;8.45;;;6.72;;
59734;SDS011;64362;45.620;4.920;2024-01-11T00:26:40;8.48;;;6.30;;
59734;SDS011;64362;45.620;4.920;2024-01-11T00:29:06;7.25;;;5.80;;
59734;SDS011;64362;45.620;4.920;2024-01-11T00:31:32;8.52;;;6.40;;
59734;SDS011;64362;45.620;4.920;2024-01-11T00:33:58;8.85;;;6.47;;
59734;SDS011;64362;45.620;4.920;2024-01-11T00:36:24;9.27;;;6.18;;
59734;SDS011;64362;45.620;4.920;2024-01-11T00:38:49;8.20;;;6.32;;
59734;SDS011;64362;45.620;4.920;2024-01-11T00:41:15;9.60;;;6.25;;
59734;SDS011;64362;45.620;4.920;2024-01-11T00:43:40;7.75;;;6.75;;
59734;SDS011;64362;45.620;4.920;2024-01-11T00:46:05;9.00;;;6.00;;
59734;SDS011;64362;45.620;4.920;2024-01-11T00:48:31;7.80;;;5.85;;
59734;SDS011;64362;45.620;4.920;2024-01-11T00:50:56;8.40;;;6.30;;
59734;SDS011;64362;45.620;4.920;2024-01-11T00:53:22;8.10;;;6.30;;
59734;SDS011;64362;45.620;4.920;2024-01-11T00:55:47;7.43;;;5.80;;
59734;SDS011;64362;45.620;4.920;2024-01-11T00:58:13;8.43;;;5.90;;
59734;SDS011;64362;45.620;4.920;2024-01-11T01:00:38;7.13;;;6.05;;
59734;SDS011;64362;45.620;4.920;2024-01-11T01:03:04;7.22;;;5.53;;
59734;SDS011;64362;45.620;4.920;2024-01-11T01:05:29;6.30;;;5.68;;
59734;SDS011;64362;45.620;4.920;2024-01-11T01:07:55;8.13;;;6.07;;
59734;SDS011;64362;45.620;4.920;2024-01-11T01:10:20;8.15;;;6.55;;
59734;SDS011;64362;45.620;4.920;2024-01-11T01:12:45;7.53;;;5.65;;
59734;SDS011;64362;45.620;4.920;2024-01-11T01:15:11;8.43;;;6.38;;
59734;SDS011;64362;45.620;4.920;2024-01-11T01:17:37;6.45;;;5.65;;
59734;SDS011;64362;45.620;4.920;2024-01-11T01:20:02;7.28;;;6.35;;
59734;SDS011;64362;45.620;4.920;2024-01-11T01:22:28;7.47;;;6.18;;
59734;SDS011;64362;45.620;4.920;2024-01-11T01:24:54;7.65;;;6.28;;
59734;SDS011;64362;45.620;4.920;2024-01-11T01:27:19;7.18;;;6.38;;
59734;SDS011;64362;45.620;4.920;2024-01-11T01:29:45;8.00;;;6.13;;
59734;SDS011;64362;45.620;4.920;2024-01-11T01:32:11;8.18;;;5.93;;
59734;SDS011;64362;45.620;4.920;2024-01-11T01:34:36;7.88;;;6.22;;
59734;SDS011;64362;45.620;4.920;2024-01-11T01:37:02;8.35;;;6.32;;
59734;SDS011;64362;45.620;4.920;2024-01-11T01:39:27;7.53;;;6.35;;
59734;SDS011;64362;45.620;4.920;2024-01-11T01:41:53;7.07;;;5.85;;
59734;SDS011;64362;45.620;4.920;2024-01-11T01:44:18;7.97;;;6.45;;
59734;SDS011;64362;45.620;4.920;2024-01-11T01:46:44;7.80;;;6.38;;
59734;SDS011;64362;45.620;4.920;2024-01-11T01:49:09;9.20;;;6.30;;
59734;SDS011;64362;45.620;4.920;2024-01-11T01:51:35;9.25;;;6.70;;
59734;SDS011;64362;45.620;4.920;2024-01-11T01:54:01;7.13;;;6.18;;
59734;SDS011;64362;45.620;4.920;2024-01-11T01:56:27;8.88;;;6.07;;
59734;SDS011;64362;45.620;4.920;2024-01-11T01:58:53;8.02;;;6.20;;
59734;SDS011;64362;45.620;4.920;2024-01-11T02:01:18;7.88;;;6.50;;
59734;SDS011;64362;45.620;4.920;2024-01-11T02:03:45;9.23;;;6.18;;
59734;SDS011;64362;45.620;4.920;2024-01-11T02:06:11;9.23;;;6.65;;
59734;SDS011;64362;45.620;4.920;2024-01-11T02:08:36;8.77;;;6.35;;
59734;SDS011;64362;45.620;4.920;2024-01-11T02:11:02;9.57;;;6.90;;
59734;SDS011;64362;45.620;4.920;2024-01-11T02:13:28;11.15;;;7.03;;
59734;SDS011;64362;45.620;4.920;2024-01-11T02:15:53;8.68;;;6.28;;
59734;SDS011;64362;45.620;4.920;2024-01-11T02:18:19;7.38;;;6.50;;
59734;SDS011;64362;45.620;4.920;2024-01-11T02:20:44;7.90;;;5.88;;
59734;SDS011;64362;45.620;4.920;2024-01-11T02:23:21;7.75;;;6.30;;
59734;SDS011;64362;45.620;4.920;2024-01-11T02:25:47;7.22;;;6.35;;
59734;SDS011;64362;45.620;4.920;2024-01-11T02:28:12;8.27;;;6.38;;
59734;SDS011;64362;45.620;4.920;2024-01-11T02:30:37;7.05;;;5.57;;
59734;SDS011;64362;45.620;4.920;2024-01-11T02:33:03;7.95;;;6.03;;
59734;SDS011;64362;45.620;4.920;2024-01-11T02:35:29;8.38;;;6.25;;
59734;SDS011;64362;45.620;4.920;2024-01-11T02:37:56;8.15;;;6.65;;
59734;SDS011;64362;45.620;4.920;2024-01-11T02:40:22;9.73;;;6.90;;
59734;SDS011;64362;45.620;4.920;2024-01-11T02:42:48;7.43;;;6.07;;
59734;SDS011;64362;45.620;4.920;2024-01-11T02:45:13;7.15;;;5.80;;
59734;SDS011;64362;45.620;4.920;2024-01-11T02:47:39;7.30;;;6.28;;
59734;SDS011;64362;45.620;4.920;2024-01-11T02:50:06;9.23;;;6.10;;
59734;SDS011;64362;45.620;4.920;2024-01-11T02:52:32;8.32;;;6.10;;
59734;SDS011;64362;45.620;4.920;2024-01-11T02:54:58;9.38;;;6.03;;
59734;SDS011;64362;45.620;4.920;2024-01-11T02:57:24;8.55;;;6.70;;
59734;SDS011;64362;45.620;4.920;2024-01-11T02:59:49;8.05;;;6.65;;
59734;SDS011;64362;45.620;4.920;2024-01-11T03:02:14;8.52;;;6.35;;
59734;SDS011;64362;45.620;4.920;2024-01-11T03:04:40;7.70;;;6.53;;
59734;SDS011;64362;45.620;4.920;2024-01-11T03:07:05;8.18;;;5.78;;
59734;SDS011;64362;45.620;4.920;2024-01-11T03:09:31;7.35;;;6.20;;
59734;SDS011;64362;45.620;4.920;2024-01-11T03:11:56;8.50;;;6.75;;
59734;SDS011;64362;45.620;4.920;2024-01-11T03:14:22;8.13;;;6.00;;
59734;SDS011;64362;45.620;4.920;2024-01-11T03:16:47;7.97;;;6.97;;
59734;SDS011;64362;45.620;4.920;2024-01-11T03:19:13;9.60;;;6.22;;
59734;SDS011;64362;45.620;4.920;2024-01-11T03:21:42;7.25;;;5.78;;
59734;SDS011;64362;45.620;4.920;2024-01-11T03:24:08;8.25;;;6.47;;
59734;SDS011;64362;45.620;4.920;2024-01-11T03:26:34;7.78;;;6.20;;
59734;SDS011;64362;45.620;4.920;2024-01-11T03:28:59;7.57;;;6.05;;
59734;SDS011;64362;45.620;4.920;2024-01-11T03:31:25;9.85;;;6.82;;
59734;SDS011;64362;45.620;4.920;2024-01-11T03:33:51;10.13;;;6.90;;
59734;SDS011;64362;45.620;4.920;2024-01-11T03:36:17;7.22;;;6.13;;
59734;SDS011;64362;45.620;4.920;2024-01-11T03:38:42;8.85;;;6.38;;
59734;SDS011;64362;45.620;4.920;2024-01-11T03:41:08;9.40;;;6.35;;
59734;SDS011;64362;45.620;4.920;2024-01-11T03:43:35;7.53;;;6.32;;
59734;SDS011;64362;45.620;4.920;2024-01-11T03:46:01;7.18;;;6.03;;
59734;SDS011;64362;45.620;4.920;2024-01-11T03:48:26;7.68;;;5.97;;
59734;SDS011;64362;45.620;4.920;2024-01-11T03:50:52;8.13;;;6.38;;
59734;SDS011;64362;45.620;4.920;2024-01-11T03:53:17;7.65;;;6.13;;
59734;SDS011;64362;45.620;4.920;2024-01-11T03:55:43;7.25;;;5.78;;
59734;SDS011;64362;45.620;4.920;2024-01-11T03:58:08;8.40;;;5.65;;
59734;SDS011;64362;45.620;4.920;2024-01-11T04:00:34;8.48;;;6.88;;
59734;SDS011;64362;45.620;4.920;2024-01-11T04:02:59;9.25;;;6.75;;
59734;SDS011;64362;45.620;4.920;2024-01-11T04:05:25;8.13;;;6.05;;
59734;SDS011;64362;45.620;4.920;2024-01-11T04:07:50;7.53;;;6.00;;
59734;SDS011;64362;45.620;4.920;2024-01-11T04:10:17;7.78;;;5.82;;
59734;SDS011;64362;45.620;4.920;2024-01-11T04:12:43;8.52;;;6.20;;
59734;SDS011;64362;45.620;4.920;2024-01-11T04:15:08;8.02;;;5.93;;
59734;SDS011;64362;45.620;4.920;2024-01-11T04:17:34;8.15;;;6.50;;
59734;SDS011;64362;45.620;4.920;2024-01-11T04:19:59;7.80;;;5.72;;
59734;SDS011;64362;45.620;4.920;2024-01-11T04:22:25;7.82;;;5.65;;
59734;SDS011;64362;45.620;4.920;2024-01-11T04:24:53;7.82;;;6.00;;
59734;SDS011;64362;45.620;4.920;2024-01-11T04:27:18;7.65;;;6.30;;
59734;SDS011;64362;45.620;4.920;2024-01-11T04:29:44;8.23;;;5.70;;
59734;SDS011;64362;45.620;4.920;2024-01-11T04:32:09;8.02;;;6.13;;
59734;SDS011;64362;45.620;4.920;2024-01-11T04:34:35;7.47;;;6.15;;
59734;SDS011;64362;45.620;4.920;2024-01-11T04:37:00;7.22;;;5.72;;
59734;SDS011;64362;45.620;4.920;2024-01-11T04:39:25;8.18;;;6.05;;
59734;SDS011;64362;45.620;4.920;2024-01-11T04:41:51;9.30;;;6.40;;
59734;SDS011;64362;45.620;4.920;2024-01-11T04:44:16;8.65;;;6.30;;
59734;SDS011;64362;45.620;4.920;2024-01-11T04:46:43;7.68;;;5.45;;
59734;SDS011;64362;45.620;4.920;2024-01-11T04:49:08;7.88;;;5.32;;
59734;SDS011;64362;45.620;4.920;2024-01-11T04:51:34;8.23;;;6.50;;
59734;SDS011;64362;45.620;4.920;2024-01-11T04:53:59;9.27;;;6.45;;
59734;SDS011;64362;45.620;4.920;2024-01-11T04:56:26;7.72;;;5.82;;
59734;SDS011;64362;45.620;4.920;2024-01-11T04:58:51;8.68;;;6.22;;
59734;SDS011;64362;45.620;4.920;2024-01-11T05:01:17;8.20;;;6.22;;
59734;SDS011;64362;45.620;4.920;2024-01-11T05:03:43;7.95;;;6.13;;
59734;SDS011;64362;45.620;4.920;2024-01-11T05:06:16;7.93;;;5.90;;
59734;SDS011;64362;45.620;4.920;2024-01-11T05:08:54;7.50;;;6.13;;
59734;SDS011;64362;45.620;4.920;2024-01-11T05:11:23;7.00;;;5.78;;
59734;SDS011;64362;45.620;4.920;2024-01-11T05:13:49;8.02;;;5.72;;
59734;SDS011;64362;45.620;4.920;2024-01-11T05:16:26;8.75;;;6.07;;
59734;SDS011;64362;45.620;4.920;2024-01-11T05:18:52;7.40;;;5.53;;
59734;SDS011;64362;45.620;4.920;2024-01-11T05:21:18;7.70;;;6.65;;
59734;SDS011;64362;45.620;4.920;2024-01-11T05:23:44;9.85;;;6.78;;
59734;SDS011;64362;45.620;4.920;2024-01-11T05:26:10;8.90;;;6.55;;
59734;SDS011;64362;45.620;4.920;2024-01-11T05:28:36;8.32;;;6.28;;
59734;SDS011;64362;45.620;4.920;2024-01-11T05:31:04;8.20;;;6.00;;
59734;SDS011;64362;45.620;4.920;2024-01-11T05:33:31;7.65;;;5.90;;
59734;SDS011;64362;45.620;4.920;2024-01-11T05:35:56;7.32;;;5.85;;
59734;SDS011;64362;45.620;4.920;2024-01-11T05:38:22;9.02;;;6.47;;
59734;SDS011;64362;45.620;4.920;2024-01-11T05:40:47;9.85;;;6.57;;
59734;SDS011;64362;45.620;4.920;2024-01-11T05:43:13;8.90;;;5.80;;
59734;SDS011;64362;45.620;4.920;2024-01-11T05:45:38;8.68;;;5.82;;
59734;SDS011;64362;45.620;4.920;2024-01-11T05:48:04;9.00;;;6.82;;
59734;SDS011;64362;45.620;4.920;2024-01-11T05:50:31;8.27;;;6.22;;
59734;SDS011;64362;45.620;4.920;2024-01-11T05:52:56;8.68;;;6.10;;
59734;SDS011;64362;45.620;4.920;2024-01-11T05:55:22;8.48;;;5.97;;
59734;SDS011;64362;45.620;4.920;2024-01-11T05:57:48;10.05;;;6.80;;
59734;SDS011;64362;45.620;4.920;2024-01-11T06:00:13;9.95;;;6.53;;
59734;SDS011;64362;45.620;4.920;2024-01-11T06:02:39;7.85;;;6.15;;
59734;SDS011;64362;45.620;4.920;2024-01-11T06:05:08;8.85;;;6.40;;
59734;SDS011;64362;45.620;4.920;2024-01-11T06:07:33;8.82;;;6.65;;
59734;SDS011;64362;45.620;4.920;2024-01-11T06:09:59;9.13;;;5.80;;
59734;SDS011;64362;45.620;4.920;2024-01-11T06:12:26;8.40;;;6.50;;
59734;SDS011;64362;45.620;4.920;2024-01-11T06:14:52;7.88;;;5.95;;
59734;SDS011;64362;45.620;4.920;2024-01-11T06:17:18;8.38;;;6.47;;
59734;SDS011;64362;45.620;4.920;2024-01-11T06:19:43;8.35;;;6.18;;
59734;SDS011;64362;45.620;4.920;2024-01-11T06:22:09;8.93;;;6.95;;
59734;SDS011;64362;45.620;4.920;2024-01-11T06:24:34;8.90;;;6.68;;
59734;SDS011;64362;45.620;4.920;2024-01-11T06:27:00;9.20;;;6.90;;
59734;SDS011;64362;45.620;4.920;2024-01-11T06:29:25;8.93;;;6.07;;
59734;SDS011;64362;45.620;4.920;2024-01-11T06:31:51;8.65;;;6.50;;
59734;SDS011;64362;45.620;4.920;2024-01-11T06:34:16;8.73;;;6.38;;
59734;SDS011;64362;45.620;4.920;2024-01-11T06:36:42;8.50;;;6.50;;
59734;SDS011;64362;45.620;4.920;2024-01-11T06:39:07;8.63;;;6.25;;
59734;SDS011;64362;45.620;4.920;2024-01-11T06:41:33;9.85;;;6.75;;
59734;SDS011;64362;45.620;4.920;2024-01-11T06:43:59;9.05;;;6.13;;
59734;SDS011;64362;45.620;4.920;2024-01-11T06:46:24;9.05;;;6.85;;
59734;SDS011;64362;45.620;4.920;2024-01-11T06:48:50;7.95;;;5.93;;
59734;SDS011;64362;45.620;4.920;2024-01-11T06:51:16;8.75;;;6.55;;
59734;SDS011;64362;45.620;4.920;2024-01-11T06:53:41;8.77;;;6.35;;
59734;SDS011;64362;45.620;4.920;2024-01-11T06:56:14;9.77;;;6.15;;
59734;SDS011;64362;45.620;4.920;2024-01-11T06:58:44;9.77;;;6.25;;
59734;SDS011;64362;45.620;4.920;2024-01-11T07:01:10;9.45;;;6.88;;
59734;SDS011;64362;45.620;4.920;2024-01-11T07:03:35;8.73;;;6.55;;
59734;SDS011;64362;45.620;4.920;2024-01-11T07:06:01;9.00;;;6.80;;
59734;SDS011;64362;45.620;4.920;2024-01-11T07:08:28;10.32;;;7.38;;
59734;SDS011;64362;45.620;4.920;2024-01-11T07:10:53;11.05;;;7.00;;
59734;SDS011;64362;45.620;4.920;2024-01-11T07:13:19;11.15;;;7.28;;
59734;SDS011;64362;45.620;4.920;2024-01-11T07:15:44;10.85;;;6.68;;
59734;SDS011;64362;45.620;4.920;2024-01-11T07:18:10;9.88;;;6.38;;
59734;SDS011;64362;45.620;4.920;2024-01-11T07:20:35;12.02;;;7.30;;
59734;SDS011;64362;45.620;4.920;2024-01-11T07:23:01;12.45;;;6.82;;
59734;SDS011;64362;45.620;4.920;2024-01-11T07:25:26;9.98;;;6.40;;
59734;SDS011;64362;45.620;4.920;2024-01-11T07:27:52;10.40;;;7.05;;
59734;SDS011;64362;45.620;4.920;2024-01-11T07:30:17;11.05;;;7.38;;
59734;SDS011;64362;45.620;4.920;2024-01-11T07:32:45;11.07;;;6.93;;
59734;SDS011;64362;45.620;4.920;2024-01-11T07:35:11;10.50;;;6.95;;
59734;SDS011;64362;45.620;4.920;2024-01-11T07:37:37;9.65;;;7.25;;
59734;SDS011;64362;45.620;4.920;2024-01-11T07:40:04;10.77;;;7.68;;
59734;SDS011;64362;45.620;4.920;2024-01-11T07:42:35;11.63;;;6.72;;
59734;SDS011;64362;45.620;4.920;2024-01-11T07:45:01;8.70;;;6.38;;
59734;SDS011;64362;45.620;4.920;2024-01-11T07:47:26;11.60;;;6.93;;
59734;SDS011;64362;45.620;4.920;2024-01-11T07:49:52;11.60;;;7.40;;
59734;SDS011;64362;45.620;4.920;2024-01-11T07:52:17;11.77;;;7.20;;
59734;SDS011;64362;45.620;4.920;2024-01-11T07:54:43;11.82;;;8.45;;
59734;SDS011;64362;45.620;4.920;2024-01-11T07:57:08;11.75;;;7.82;;
59734;SDS011;64362;45.620;4.920;2024-01-11T07:59:34;10.80;;;7.85;;
59734;SDS011;64362;45.620;4.920;2024-01-11T08:02:01;9.20;;;7.47;;
59734;SDS011;64362;45.620;4.920;2024-01-11T08:04:27;12.15;;;7.40;;
59734;SDS011;64362;45.620;4.920;2024-01-11T08:06:52;13.35;;;8.43;;
59734;SDS011;64362;45.620;4.920;2024-01-11T08:09:18;12.05;;;7.55;;
59734;SDS011;64362;45.620;4.920;2024-01-11T08:11:43;11.82;;;7.68;;
59734;SDS011;64362;45.620;4.920;2024-01-11T08:14:09;12.05;;;7.50;;
59734;SDS011;64362;45.620;4.920;2024-01-11T08:16:34;11.70;;;7.25;;
59734;SDS011;64362;45.620;4.920;2024-01-11T08:19:00;11.18;;;7.25;;
59734;SDS011;64362;45.620;4.920;2024-01-11T08:21:28;12.00;;;7.45;;
59734;SDS011;64362;45.620;4.920;2024-01-11T08:23:54;11.38;;;6.75;;
59734;SDS011;64362;45.620;4.920;2024-01-11T08:26:20;12.10;;;7.80;;
59734;SDS011;64362;45.620;4.920;2024-01-11T08:28:47;12.93;;;7.32;;
59734;SDS011;64362;45.620;4.920;2024-01-11T08:31:13;9.57;;;7.20;;
59734;SDS011;64362;45.620;4.920;2024-01-11T08:33:38;11.30;;;7.60;;
59734;SDS011;64362;45.620;4.920;2024-01-11T08:36:04;11.18;;;7.70;;
59734;SDS011;64362;45.620;4.920;2024-01-11T08:38:31;12.15;;;7.22;;
59734;SDS011;64362;45.620;4.920;2024-01-11T08:40:57;9.18;;;6.47;;
59734;SDS011;64362;45.620;4.920;2024-01-11T08:43:24;10.00;;;6.82;;
59734;SDS011;64362;45.620;4.920;2024-01-11T08:45:50;11.82;;;8.13;;
59734;SDS011;64362;45.620;4.920;2024-01-11T08:48:16;12.55;;;7.70;;
59734;SDS011;64362;45.620;4.920;2024-01-11T08:50:42;13.30;;;7.90;;
59734;SDS011;64362;45.620;4.920;2024-01-11T08:53:07;10.77;;;7.85;;
59734;SDS011;64362;45.620;4.920;2024-01-11T08:55:33;10.05;;;7.10;;
59734;SDS011;64362;45.620;4.920;2024-01-11T08:57:58;11.07;;;7.15;;
59734;SDS011;64362;45.620;4.920;2024-01-11T09:00:24;11.02;;;7.30;;
59734;SDS011;64362;45.620;4.920;2024-01-11T09:02:49;9.55;;;7.38;;
59734;SDS011;64362;45.620;4.920;2024-01-11T09:05:15;11.27;;;6.82;;
59734;SDS011;64362;45.620;4.920;2024-01-11T09:07:40;10.63;;;7.60;;
59734;SDS011;64362;45.620;4.920;2024-01-11T09:10:06;9.60;;;7.07;;
59734;SDS011;64362;45.620;4.920;2024-01-11T09:12:36;8.80;;;6.85;;
59734;SDS011;64362;45.620;4.920;2024-01-11T09:15:02;11.95;;;7.47;;
59734;SDS011;64362;45.620;4.920;2024-01-11T09:17:28;10.43;;;7.13;;
59734;SDS011;64362;45.620;4.920;2024-01-11T09:19:53;11.05;;;7.82;;
59734;SDS011;64362;45.620;4.920;2024-01-11T09:22:19;11.07;;;7.20;;
59734;SDS011;64362;45.620;4.920;2024-01-11T09:24:44;10.52;;;7.13;;
59734;SDS011;64362;45.620;4.920;2024-01-11T09:27:10;10.30;;;6.75;;
59734;SDS011;64362;45.620;4.920;2024-01-11T09:29:35;10.88;;;6.97;;
59734;SDS011;64362;45.620;4.920;2024-01-11T09:32:00;10.05;;;6.25;;
59734;SDS011;64362;45.620;4.920;2024-01-11T09:34:26;9.63;;;6.30;;
59734;SDS011;64362;45.620;4.920;2024-01-11T09:36:51;8.85;;;6.40;;
59734;SDS011;64362;45.620;4.920;2024-01-11T09:39:17;9.10;;;6.35;;
59734;SDS011;64362;45.620;4.920;2024-01-11T09:41:47;9.68;;;6.65;;
59734;SDS011;64362;45.620;4.920;2024-01-11T09:44:17;9.20;;;6.82;;
59734;SDS011;64362;45.620;4.920;2024-01-11T09:46:43;10.95;;;6.80;;
59734;SDS011;64362;45.620;4.920;2024-01-11T09:49:09;11.40;;;6.68;;
59734;SDS011;64362;45.620;4.920;2024-01-11T09:51:36;11.02;;;6.88;;
59734;SDS011;64362;45.620;4.920;2024-01-11T09:54:03;13.02;;;7.10;;
59734;SDS011;64362;45.620;4.920;2024-01-11T09:56:29;13.32;;;6.93;;
59734;SDS011;64362;45.620;4.920;2024-01-11T09:58:54;12.60;;;7.28;;
59734;SDS011;64362;45.620;4.920;2024-01-11T10:01:20;11.02;;;6.97;;
59734;SDS011;64362;45.620;4.920;2024-01-11T10:03:47;11.07;;;7.53;;
59734;SDS011;64362;45.620;4.920;2024-01-11T10:06:12;11.65;;;7.68;;
59734;SDS011;64362;45.620;4.920;2024-01-11T10:08:39;13.52;;;7.43;;
59734;SDS011;64362;45.620;4.920;2024-01-11T10:11:04;12.10;;;7.93;;
59734;SDS011;64362;45.620;4.920;2024-01-11T10:13:30;12.35;;;8.20;;
59734;SDS011;64362;45.620;4.920;2024-01-11T10:16:07;12.05;;;7.85;;
59734;SDS011;64362;45.620;4.920;2024-01-11T10:18:34;12.60;;;7.53;;
59734;SDS011;64362;45.620;4.920;2024-01-11T10:21:01;11.13;;;7.70;;
59734;SDS011;64362;45.620;4.920;2024-01-11T10:23:26;12.00;;;7.63;;
59734;SDS011;64362;45.620;4.920;2024-01-11T10:25:57;12.60;;;7.85;;
59734;SDS011;64362;45.620;4.920;2024-01-11T10:28:24;11.20;;;7.25;;
59734;SDS011;64362;45.620;4.920;2024-01-11T10:30:51;11.23;;;7.72;;
59734;SDS011;64362;45.620;4.920;2024-01-11T10:33:21;12.40;;;8.27;;
59734;SDS011;64362;45.620;4.920;2024-01-11T10:35:50;9.70;;;6.68;;
59734;SDS011;64362;45.620;4.920;2024-01-11T10:38:16;12.20;;;7.57;;
59734;SDS011;64362;45.620;4.920;2024-01-11T10:40:42;11.82;;;8.00;;
59734;SDS011;64362;45.620;4.920;2024-01-11T10:43:08;14.48;;;8.00;;
59734;SDS011;64362;45.620;4.920;2024-01-11T10:45:37;14.35;;;8.50;;
59734;SDS011;64362;45.620;4.920;2024-01-11T10:48:07;12.48;;;7.78;;
59734;SDS011;64362;45.620;4.920;2024-01-11T10:50:38;12.15;;;7.97;;
59734;SDS011;64362;45.620;4.920;2024-01-11T10:56:10;14.43;;;8.00;;
59734;SDS011;64362;45.620;4.920;2024-01-11T10:58:40;15.98;;;8.02;;
59734;SDS011;64362;45.620;4.920;2024-01-11T11:01:06;16.40;;;8.85;;
59734;SDS011;64362;45.620;4.920;2024-01-11T11:03:33;14.90;;;8.48;;
59734;SDS011;64362;45.620;4.920;2024-01-11T11:05:59;17.15;;;9.07;;
59734;SDS011;64362;45.620;4.920;2024-01-11T11:08:25;15.85;;;7.75;;
59734;SDS011;64362;45.620;4.920;2024-01-11T11:10:55;16.15;;;8.13;;
59734;SDS011;64362;45.620;4.920;2024-01-11T11:13:25;18.38;;;7.07;;
59734;SDS011;64362;45.620;4.920;2024-01-11T11:15:51;12.27;;;7.22;;
59734;SDS011;64362;45.620;4.920;2024-01-11T11:18:17;13.27;;;7.30;;
59734;SDS011;64362;45.620;4.920;2024-01-11T11:20:43;13.77;;;7.40;;
59734;SDS011;64362;45.620;4.920;2024-01-11T11:23:10;15.07;;;7.38;;
59734;SDS011;64362;45.620;4.920;2024-01-11T11:25:37;13.30;;;6.80;;
59734;SDS011;64362;45.620;4.920;2024-01-11T11:28:05;12.32;;;7.05;;
59734;SDS011;64362;45.620;4.920;2024-01-11T11:30:31;13.02;;;7.25;;
59734;SDS011;64362;45.620;4.920;2024-01-11T11:32:57;10.20;;;6.40;;
59734;SDS011;64362;45.620;4.920;2024-01-11T11:35:23;12.65;;;6.97;;
59734;SDS011;64362;45.620;4.920;2024-01-11T11:37:53;12.25;;;7.05;;
59734;SDS011;64362;45.620;4.920;2024-01-11T11:40:20;9.52;;;6.40;;
59734;SDS011;64362;45.620;4.920;2024-01-11T11:42:47;12.35;;;7.05;;
59734;SDS011;64362;45.620;4.920;2024-01-11T11:45:13;12.52;;;6.70;;
59734;SDS011;64362;45.620;4.920;2024-01-11T11:47:49;14.48;;;6.90;;
59734;SDS011;64362;45.620;4.920;2024-01-11T11:50:15;10.15;;;7.22;;
59734;SDS011;64362;45.620;4.920;2024-01-11T11:52:40;11.23;;;5.72;;
59734;SDS011;64362;45.620;4.920;2024-01-11T11:55:09;10.88;;;6.97;;
59734;SDS011;64362;45.620;4.920;2024-01-11T11:57:34;9.57;;;5.85;;
59734;SDS011;64362;45.620;4.920;2024-01-11T12:00:00;9.98;;;6.30;;
59734;SDS011;64362;45.620;4.920;2024-01-11T12:02:36;10.23;;;6.45;;
59734;SDS011;64362;45.620;4.920;2024-01-11T12:05:02;15.57;;;6.50;;
59734;SDS011;64362;45.620;4.920;2024-01-11T12:07:29;9.52;;;5.80;;
59734;SDS011;64362;45.620;4.920;2024-01-11T12:09:54;8.98;;;6.13;;
59734;SDS011;64362;45.620;4.920;2024-01-11T12:12:20;11.80;;;6.30;;
59734;SDS011;64362;45.620;4.920;2024-01-11T12:14:49;9.00;;;5.65;;
59734;SDS011;64362;45.620;4.920;2024-01-11T12:17:15;7.38;;;5.47;;
59734;SDS011;64362;45.620;4.920;2024-01-11T12:19:41;9.45;;;5.38;;
59734;SDS011;64362;45.620;4.920;2024-01-11T12:22:07;7.78;;;4.85;;
59734;SDS011;64362;45.620;4.920;2024-01-11T12:24:32;9.30;;;5.38;;
59734;SDS011;64362;45.620;4.920;2024-01-11T12:27:01;9.05;;;5.22;;
59734;SDS011;64362;45.620;4.920;2024-01-11T12:29:30;8.02;;;4.65;;
59734;SDS011;64362;45.620;4.920;2024-01-11T12:31:56;7.75;;;4.45;;
59734;SDS011;64362;45.620;4.920;2024-01-11T12:34:23;7.28;;;4.68;;
59734;SDS011;64362;45.620;4.920;2024-01-11T12:36:49;7.60;;;4.75;;
59734;SDS011;64362;45.620;4.920;2024-01-11T12:39:16;7.72;;;4.97;;
59734;SDS011;64362;45.620;4.920;2024-01-11T12:41:41;8.60;;;5.25;;
59734;SDS011;64362;45.620;4.920;2024-01-11T12:44:08;8.02;;;5.35;;
59734;SDS011;64362;45.620;4.920;2024-01-11T12:46:33;8.38;;;5.60;;
59734;SDS011;64362;45.620;4.920;2024-01-11T12:48:59;7.18;;;5.30;;
59734;SDS011;64362;45.620;4.920;2024-01-11T12:51:25;7.93;;;4.90;;
59734;SDS011;64362;45.620;4.920;2024-01-11T12:53:51;8.57;;;5.28;;
59734;SDS011;64362;45.620;4.920;2024-01-11T12:56:18;8.23;;;5.47;;
59734;SDS011;64362;45.620;4.920;2024-01-11T12:58:44;7.80;;;5.10;;
59734;SDS011;64362;45.620;4.920;2024-01-11T13:01:11;7.70;;;5.15;;
59734;SDS011;64362;45.620;4.920;2024-01-11T13:03:38;6.75;;;4.60;;
59734;SDS011;64362;45.620;4.920;2024-01-11T13:06:04;7.28;;;4.80;;
59734;SDS011;64362;45.620;4.920;2024-01-11T13:08:32;7.10;;;4.57;;
59734;SDS011;64362;45.620;4.920;2024-01-11T13:11:01;8.02;;;5.32;;
59734;SDS011;64362;45.620;4.920;2024-01-11T13:13:32;7.97;;;5.43;;
59734;SDS011;64362;45.620;4.920;2024-01-11T13:15:58;8.63;;;5.65;;
59734;SDS011;64362;45.620;4.920;2024-01-11T13:18:24;7.05;;;5.25;;
59734;SDS011;64362;45.620;4.920;2024-01-11T13:20:49;7.00;;;4.75;;
59734;SDS011;64362;45.620;4.920;2024-01-11T13:25:47;7.78;;;5.28;;
59734;SDS011;64362;45.620;4.920;2024-01-11T13:28:16;7.85;;;4.78;;
59734;SDS011;64362;45.620;4.920;2024-01-11T13:30:44;7.57;;;4.60;;
59734;SDS011;64362;45.620;4.920;2024-01-11T13:33:10;8.30;;;5.80;;
59734;SDS011;64362;45.620;4.920;2024-01-11T13:35:37;7.38;;;5.28;;
59734;SDS011;64362;45.620;4.920;2024-01-11T13:38:06;9.02;;;5.90;;
59734;SDS011;64362;45.620;4.920;2024-01-11T13:40:32;8.30;;;6.07;;
59734;SDS011;64362;45.620;4.920;2024-01-11T13:42:58;7.95;;;5.88;;
59734;SDS011;64362;45.620;4.920;2024-01-11T13:45:24;8.15;;;5.20;;
59734;SDS011;64362;45.620;4.920;2024-01-11T13:47:50;8.18;;;4.88;;
59734;SDS011;64362;45.620;4.920;2024-01-11T13:50:16;6.93;;;5.00;;
59734;SDS011;64362;45.620;4.920;2024-01-11T13:52:43;8.32;;;5.05;;
59734;SDS011;64362;45.620;4.920;2024-01-11T13:55:09;8.82;;;5.03;;
59734;SDS011;64362;45.620;4.920;2024-01-11T13:57:37;6.72;;;4.78;;
59734;SDS011;64362;45.620;4.920;2024-01-11T14:00:03;6.55;;;4.63;;
59734;SDS011;64362;45.620;4.920;2024-01-11T14:02:30;7.95;;;4.80;;
59734;SDS011;64362;45.620;4.920;2024-01-11T14:04:55;7.90;;;5.18;;
59734;SDS011;64362;45.620;4.920;2024-01-11T14:07:21;8.65;;;5.13;;
59734;SDS011;64362;45.620;4.920;2024-01-11T14:09:46;6.05;;;4.50;;
59734;SDS011;64362;45.620;4.920;2024-01-11T14:12:12;7.18;;;4.57;;
59734;SDS011;64362;45.620;4.920;2024-01-11T14:14:40;8.85;;;4.82;;
59734;SDS011;64362;45.620;4.920;2024-01-11T14:17:05;9.48;;;5.30;;
59734;SDS011;64362;45.620;4.920;2024-01-11T14:19:31;6.75;;;4.85;;
59734;SDS011;64362;45.620;4.920;2024-01-11T14:21:57;11.23;;;5.50;;
59734;SDS011;64362;45.620;4.920;2024-01-11T14:24:22;7.55;;;4.85;;
59734;SDS011;64362;45.620;4.920;2024-01-11T14:26:49;7.60;;;4.90;;
59734;SDS011;64362;45.620;4.920;2024-01-11T14:29:14;8.48;;;5.10;;
59734;SDS011;64362;45.620;4.920;2024-01-11T14:31:40;6.45;;;4.72;;
59734;SDS011;64362;45.620;4.920;2024-01-11T14:34:06;7.22;;;5.18;;
59734;SDS011;64362;45.620;4.920;2024-01-11T14:36:31;7.38;;;4.60;;
59734;SDS011;64362;45.620;4.920;2024-01-11T14:38:57;7.40;;;4.93;;
59734;SDS011;64362;45.620;4.920;2024-01-11T14:41:22;7.93;;;4.80;;
59734;SDS011;64362;45.620;4.920;2024-01-11T14:43:48;6.40;;;4.57;;